Time;durP1;ratioP1;P1;durP2;ratioP2;P2;SDS_P1;SDS_P2;PMS_P1;PMS_P2;Temp;Humidity;BMP_temperature;BMP_pressure;BME280_temperature;BME280_humidity;BME280_pressure;Samples;Min_cycle;Max_cycle;Signal;HPM_P1;HPM_P2
2022/06/15 00:03:36;;;;;;;5.90;3.60;;;;;;;10.09;69.75;99211.95;219087;1284;24273;-73
2022/06/15 00:08:46;;;;;;;6.40;3.30;;;;;;;10.02;70.10;99212.30;219125;1284;24407;-73
2022/06/15 00:13:49;;;;;;;3.90;2.80;;;;;;;9.97;70.69;99213.13;216249;1284;4065691;-73
2022/06/15 00:18:52;;;;;;;3.70;2.50;;;;;;;9.92;70.53;99213.47;219044;1285;24609;-73
2022/06/15 00:23:56;;;;;;;3.80;2.60;;;;;;;9.85;70.82;99212.73;219147;1284;24755;-73
2022/06/15 00:29:04;;;;;;;4.00;2.70;;;;;;;9.74;71.05;99213.67;219184;1284;24615;-73
2022/06/15 00:34:09;;;;;;;4.80;2.90;;;;;;;9.65;71.06;99210.38;218656;1287;22711;-73
2022/06/15 00:39:11;;;;;;;5.00;3.00;;;;;;;9.56;71.30;99210.72;219433;1287;24287;-72
2022/06/15 00:44:17;;;;;;;5.00;2.90;;;;;;;9.49;71.44;99204.84;218674;1284;24557;-73
2022/06/15 00:49:29;;;;;;;5.00;3.00;;;;;;;9.43;71.86;99200.68;219278;1285;22569;-73
2022/06/15 00:54:42;;;;;;;3.60;3.00;;;;;;;9.38;72.17;99201.81;218806;1285;24284;-72
2022/06/15 00:59:59;;;;;;;4.00;3.10;;;;;;;9.36;72.64;99200.27;219181;1284;22635;-73
2022/06/15 01:05:17;;;;;;;5.90;3.40;;;;;;;9.35;73.00;99198.73;218955;1284;22572;-72
2022/06/15 01:10:55;;;;;;;9.70;4.00;;;;;;;9.34;73.45;99196.79;219204;1284;24288;-73
2022/06/15 01:17:57;;;;;;;5.80;3.00;;;;;;;9.35;74.27;99202.52;219576;1284;26604;-73
2022/06/15 01:24:17;;;;;;;;;;;;;;;;;;;;;
2022/06/15 01:30:51;;;;;;;;;;;;;;;;;;;;;
2022/06/15 01:44:12;;;;;;;7.20;3.30;;;;;;;9.01;74.38;99192.06;218505;1284;22600;-74
2022/06/15 01:50:25;;;;;;;4.50;3.40;;;;;;;8.95;74.77;99196.70;219447;1284;22573;-74
2022/06/15 01:55:55;;;;;;;4.40;3.50;;;;;;;8.86;75.21;99189.23;219301;1284;26554;-73
2022/06/15 02:01:41;;;;;;;5.20;3.70;;;;;;;8.83;75.57;99189.33;219040;1284;22586;-71
2022/06/15 02:07:45;;;;;;;5.50;4.00;;;;;;;8.79;75.71;99192.80;218992;1284;22559;-73
2022/06/15 02:13:19;;;;;;;6.90;4.00;;;;;;;8.73;76.16;99195.95;218135;1284;25091;-73
2022/06/15 02:18:24;;;;;;;5.30;4.10;;;;;;;8.68;76.08;99198.08;218805;1284;25467;-73
2022/06/15 02:23:36;;;;;;;6.70;4.80;;;;;;;8.66;76.59;99196.64;219526;1284;22635;-73
2022/06/15 02:28:51;;;;;;;5.90;4.30;;;;;;;8.67;76.90;99197.70;219440;1284;22602;-73
2022/06/15 02:33:57;;;;;;;7.10;5.20;;;;;;;8.69;77.26;99198.66;218886;1284;22578;-72
2022/06/15 02:39:03;;;;;;;7.80;5.20;;;;;;;8.69;77.16;99200.59;219644;1284;22619;-74
2022/06/15 02:44:10;;;;;;;8.30;5.20;;;;;;;8.67;77.42;99200.05;219588;1284;22649;-73
2022/06/15 02:49:15;;;;;;;9.40;5.60;;;;;;;8.66;77.56;99196.16;219222;1284;22572;-72
2022/06/15 02:54:51;;;;;;;14.60;6.10;;;;;;;8.68;77.56;99204.97;219393;1284;22592;-73
2022/06/15 03:00:24;;;;;;;8.00;5.10;;;;;;;8.70;78.08;99209.56;219706;1284;22574;-73
2022/06/15 03:12:11;;;;;;;;;;;;;;;;;;;;;
2022/06/15 03:17:26;;;;;;;;;;;;;;;8.71;77.90;99201.08;219326;1284;22532;-73
2022/06/15 03:22:42;;;;;;;6.20;5.40;;;;;;;8.77;78.03;99198.89;219165;1284;22806;-72
2022/06/15 03:27:52;;;;;;;5.50;4.20;;;;;;;8.82;77.94;99198.69;218975;1284;22741;-73
2022/06/15 03:32:58;;;;;;;5.10;4.00;;;;;;;8.85;77.83;99196.86;219102;1284;24279;-73
2022/06/15 03:38:12;;;;;;;6.80;4.80;;;;;;;8.85;77.80;99201.36;218828;1284;22591;-72
2022/06/15 03:43:36;;;;;;;8.20;4.60;;;;;;;8.85;77.76;99202.80;219389;1284;22560;-72
2022/06/15 03:48:58;;;;;;;8.30;5.50;;;;;;;8.98;78.50;99206.01;219553;1284;24241;-72
2022/06/15 03:54:30;;;;;;;;;;;;;;;;;;;;;
2022/06/15 04:00:26;;;;;;;8.50;5.50;;;;;;;9.97;78.19;99198.66;219179;1284;25328;-72
2022/06/15 04:05:42;;;;;;;6.90;4.60;;;;;;;10.56;77.22;99198.08;219270;1284;25603;-72
2022/06/15 04:10:50;;;;;;;7.10;4.80;;;;;;;10.91;76.21;99203.95;219144;1284;22640;-73
2022/06/15 04:15:57;;;;;;;5.80;4.40;;;;;;;11.12;75.87;99208.71;219300;1285;24250;-73
2022/06/15 04:21:02;;;;;;;8.50;4.50;;;;;;;11.39;75.73;99198.84;218969;1284;25333;-73
2022/06/15 04:26:26;;;;;;;5.80;4.60;;;;;;;11.66;75.73;99199.36;219019;1284;22682;-74
2022/06/15 04:31:28;;;;;;;6.10;4.80;;;;;;;11.77;74.82;99196.71;219481;1284;25024;-73
2022/06/15 04:36:31;;;;;;;7.00;4.60;;;;;;;11.82;74.45;99199.99;219067;1284;25604;-72
2022/06/15 04:41:36;;;;;;;7.50;4.70;;;;;;;11.90;74.22;99200.55;219139;1284;26465;-73
2022/06/15 04:46:39;;;;;;;6.30;4.60;;;;;;;12.00;74.11;99199.66;219389;1282;25437;-73
2022/06/15 04:51:42;;;;;;;8.00;4.70;;;;;;;12.08;73.95;99198.75;219600;1284;23868;-72
2022/06/15 04:56:50;;;;;;;8.30;4.90;;;;;;;12.16;73.79;99197.84;219020;1284;26526;-72
2022/06/15 05:02:09;;;;;;;5.00;4.40;;;;;;;12.26;73.59;99194.55;219311;1285;26508;-72
2022/06/15 05:07:35;;;;;;;7.30;4.70;;;;;;;12.37;73.60;99197.52;219045;1284;22590;-73
2022/06/15 05:12:51;;;;;;;8.60;5.00;;;;;;;12.55;73.78;99198.82;219018;1285;22569;-72
2022/06/15 05:18:25;;;;;;;10.00;4.60;;;;;;;12.72;73.43;99201.05;219011;1284;22576;-73
2022/06/15 05:23:39;;;;;;;8.50;5.30;;;;;;;12.91;72.88;99206.30;219208;1284;22792;-73
2022/06/15 05:28:56;;;;;;;7.10;4.40;;;;;;;13.12;72.96;99211.52;219302;1284;22562;-72
2022/06/15 05:34:00;;;;;;;6.20;4.10;;;;;;;13.31;72.69;99212.83;219308;1285;22728;-72
2022/06/15 05:39:07;;;;;;;6.50;4.30;;;;;;;13.48;72.16;99216.54;219064;1284;24975;-72
2022/06/15 05:49:38;;;;;;;4.20;3.10;;;;;;;13.83;70.37;99208.66;219519;1284;22592;-72
2022/06/15 05:54:42;;;;;;;3.60;2.30;;;;;;;14.06;69.36;99209.23;219560;1283;22569;-72
2022/06/15 05:59:45;;;;;;;6.20;2.40;;;;;;;14.20;66.41;99211.75;220045;1281;22547;-73
2022/06/15 06:04:51;;;;;;;3.80;2.20;;;;;;;14.38;65.86;99210.10;219576;1284;22604;-73
2022/06/15 06:09:57;;;;;;;7.90;4.60;;;;;;;14.64;65.72;99213.36;220028;1282;24337;-73
2022/06/15 06:15:24;;;;;;;5.40;2.10;;;;;;;14.88;64.29;99221.63;219338;1282;22566;-72
2022/06/15 06:21:05;;;;;;;3.70;1.90;;;;;;;15.09;63.90;99221.48;219756;1282;22589;-73
2022/06/15 06:26:36;;;;;;;2.10;1.60;;;;;;;15.28;61.38;99219.31;219772;1282;22602;-73
2022/06/15 06:31:46;;;;;;;3.60;1.40;;;;;;;15.38;60.80;99222.62;219474;1282;22586;-72
2022/06/15 06:37:00;;;;;;;2.70;1.40;;;;;;;15.58;60.91;99225.92;219554;1282;22576;-73
2022/06/15 06:42:06;;;;;;;4.50;1.70;;;;;;;15.77;59.86;99229.17;219720;1284;22504;-74
2022/06/15 06:47:12;;;;;;;4.60;1.70;;;;;;;15.95;59.49;99232.42;219098;1282;23124;-73
2022/06/15 06:52:16;;;;;;;4.20;1.40;;;;;;;16.12;58.99;99235.70;219617;1282;25379;-72
2022/06/15 06:57:28;;;;;;;3.00;1.40;;;;;;;16.37;58.82;99232.54;219154;1282;22556;-73
2022/06/15 07:02:39;;;;;;;4.30;1.60;;;;;;;16.57;58.28;99231.20;219619;1282;22583;-72
2022/06/15 07:07:42;;;;;;;3.10;1.60;;;;;;;16.82;58.24;99230.39;219628;1284;22588;-73
2022/06/15 07:12:44;;;;;;;2.40;1.70;;;;;;;16.98;56.98;99228.64;219261;1282;22590;-73
2022/06/15 07:17:47;;;;;;;1.40;1.30;;;;;;;17.16;56.78;99228.98;219704;1282;25451;-72
2022/06/15 07:22:50;;;;;;;4.10;1.50;;;;;;;17.39;56.20;99227.13;219570;1284;24327;-72
2022/06/15 07:27:53;;;;;;;4.50;1.10;;;;;;;17.58;55.33;99229.64;219247;1282;22550;-73
2022/06/15 07:32:56;;;;;;;2.30;0.90;;;;;;;17.78;54.69;99230.21;219855;1282;22679;-74
2022/06/15 07:38:19;;;;;;;2.20;1.10;;;;;;;17.92;53.43;99235.20;219594;1284;22556;-72
2022/06/15 07:43:44;;;;;;;2.90;0.90;;;;;;;18.07;52.78;99232.09;219492;1282;22676;-73
2022/06/15 07:54:12;;;;;;;0.80;0.70;;;;;;;18.37;51.80;99233.70;219453;1284;24596;-73
2022/06/15 07:59:15;;;;;;;2.20;1.50;;;;;;;18.45;51.40;99239.03;219440;1282;22583;-72
2022/06/15 08:04:18;;;;;;;5.00;1.20;;;;;;;18.60;51.70;99237.68;219600;1284;23313;-72
2022/06/15 08:09:34;;;;;;;;;;;;;;;;;;;;;
2022/06/15 08:14:52;;;;;;;3.80;1.90;;;;;;;18.87;50.31;99229.50;219471;1282;25597;-75
2022/06/15 08:20:29;;;;;;;3.00;1.40;;;;;;;18.93;50.28;99233.57;219544;1284;22579;-72
2022/06/15 08:30:50;;;;;;;1.70;1.20;;;;;;;19.31;49.96;99232.84;219162;1282;26220;-73
2022/06/15 08:35:58;;;;;;;1.60;1.20;;;;;;;19.44;49.37;99232.12;219773;1284;22560;-72
2022/06/15 08:41:06;;;;;;;5.30;1.90;;;;;;;19.47;49.20;99234.94;219733;1283;22876;-72
2022/06/15 08:46:18;;;;;;;2.60;1.40;;;;;;;19.68;49.27;99232.12;219863;1282;22548;-72
2022/06/15 08:51:27;;;;;;;3.00;1.30;;;;;;;19.87;48.86;99233.65;219845;1282;22544;-72
2022/06/15 08:57:05;;;;;;;2.10;1.30;;;;;;;19.96;48.43;99230.27;219667;1284;22569;-73
2022/06/15 09:02:30;;;;;;;3.30;1.40;;;;;;;20.03;48.04;99230.41;219660;1282;25299;-72
2022/06/15 09:09:01;;;;;;;3.70;1.50;;;;;;;20.06;47.81;99226.48;219478;1282;25264;-73
2022/06/15 09:14:33;;;;;;;2.70;1.50;;;;;;;20.21;47.66;99226.29;219882;1282;22538;-73
2022/06/15 09:19:43;;;;;;;3.50;1.50;;;;;;;20.42;47.58;99225.91;219852;1282;22620;-72
2022/06/15 09:24:49;;;;;;;6.60;1.60;;;;;;;20.58;47.09;99219.00;219825;1282;22642;-73
2022/06/15 09:30:18;;;;;;;1.90;1.30;;;;;;;20.64;46.50;99225.31;219848;1282;22557;-73
2022/06/15 09:35:56;;;;;;;3.40;1.50;;;;;;;20.75;46.62;99226.52;218868;1284;22726;-72
2022/06/15 09:41:23;;;;;;;3.40;1.40;;;;;;;20.82;46.19;99231.59;219481;1282;22557;-71
2022/06/15 09:46:47;;;;;;;2.00;1.40;;;;;;;20.76;45.97;99229.10;219793;1282;22562;-73
2022/06/15 09:52:10;;;;;;;3.20;1.40;;;;;;;20.77;45.27;99221.37;219507;1284;22565;-72
2022/06/15 09:57:41;;;;;;;2.90;2.10;;;;;;;20.89;45.93;99215.14;219259;1282;25327;-73
2022/06/15 10:03:00;;;;;;;3.10;1.30;;;;;;;20.98;45.11;99216.26;219802;1282;22576;-73
2022/06/15 10:08:35;;;;;;;1.70;1.20;;;;;;;20.73;45.25;99212.05;218853;1284;22598;-72
2022/06/15 10:13:44;;;;;;;3.80;1.90;;;;;;;20.73;45.72;99204.29;219305;1282;25510;-72
2022/06/15 10:19:38;;;;;;;3.20;1.80;;;;;;;20.90;44.33;99191.05;219196;1282;25931;-72
2022/06/15 10:25:03;;;;;;;3.10;1.60;;;;;;;21.20;45.61;99187.04;219498;1282;24323;-73
2022/06/15 10:30:12;;;;;;;2.50;1.70;;;;;;;21.53;45.12;99184.85;219308;1284;23762;-73
2022/06/15 10:35:33;;;;;;;2.90;2.00;;;;;;;21.73;44.69;99178.95;219630;1282;22646;-72
2022/06/15 10:46:22;;;;;;;3.60;1.80;;;;;;;21.95;43.28;99175.40;219486;1284;25508;-72
2022/06/15 10:51:46;;;;;;;4.50;1.80;;;;;;;21.82;42.70;99172.36;219111;1284;22584;-73
2022/06/15 11:02:38;;;;;;;4.30;1.40;;;;;;;22.20;43.69;99171.04;219885;1282;25273;-73
2022/06/15 11:07:59;;;;;;;2.90;1.70;;;;;;;22.10;43.03;99167.16;219658;1282;25946;-74
2022/06/15 11:13:27;;;;;;;2.30;1.70;;;;;;;21.79;43.07;99164.85;219667;1281;25323;-71
2022/06/15 11:19:00;;;;;;;3.10;1.60;;;;;;;21.67;43.45;99162.31;219663;1282;22566;-72
2022/06/15 11:24:31;;;;;;;2.10;1.40;;;;;;;21.86;43.52;99163.42;219587;1284;23252;-73
2022/06/15 11:29:46;;;;;;;2.80;1.60;;;;;;;22.17;43.63;99155.06;219298;1284;24234;-73
2022/06/15 11:35:05;;;;;;;3.30;2.40;;;;;;;22.52;43.16;99147.94;219285;1282;26661;-73
2022/06/15 11:40:33;;;;;;;2.90;1.90;;;;;;;22.75;42.26;99149.56;219000;1284;22553;-73
2022/06/15 11:46:06;;;;;;;4.10;1.60;;;;;;;22.77;41.95;99150.63;219212;1282;22665;-73
2022/06/15 11:52:01;;;;;;;3.50;2.30;;;;;;;22.91;42.45;99147.60;219678;1282;22602;-73
2022/06/15 11:57:45;;;;;;;2.80;1.70;;;;;;;23.24;42.76;99147.59;219059;1284;22547;-72
2022/06/15 12:03:29;;;;;;;2.50;1.50;;;;;;;23.36;41.10;99150.29;214805;1306;543056;-72
2022/06/15 12:09:16;;;;;;;2.10;1.70;;;;;;;23.32;41.21;99141.55;220074;1281;25369;-73
2022/06/15 12:14:35;;;;;;;2.20;1.60;;;;;;;23.38;41.46;99138.36;219839;1281;279077;-72
2022/06/15 12:19:45;;;;;;;3.10;1.90;;;;;;;23.33;40.76;99129.21;220720;1279;22568;-72
2022/06/15 12:25:05;;;;;;;2.30;2.10;;;;;;;23.22;40.50;99130.21;220352;1279;22621;-73
2022/06/15 12:30:18;;;;;;;1.60;1.50;;;;;;;23.16;40.79;99132.46;220236;1281;25254;-72
2022/06/15 12:35:33;;;;;;;5.50;2.90;;;;;;;23.24;41.13;99126.74;219906;1280;22641;-71
2022/06/15 12:40:52;;;;;;;7.80;4.60;;;;;;;23.36;40.79;99127.09;220591;1281;22552;-72
2022/06/15 12:46:16;;;;;;;2.20;1.90;;;;;;;23.31;40.69;99120.20;220897;1281;24267;-72
2022/06/15 12:51:42;;;;;;;3.10;2.80;;;;;;;23.44;41.49;99115.11;220218;1281;24219;-72
2022/06/15 12:56:58;;;;;;;3.10;1.80;;;;;;;23.69;41.54;99112.37;222048;1268;22567;-72
2022/06/15 13:02:15;;;;;;;5.00;4.10;;;;;;;23.88;40.98;99109.99;222001;1268;26313;-72
2022/06/15 13:07:26;;;;;;;4.80;1.50;;;;;;;23.83;40.30;99108.18;221805;1268;24333;-72
2022/06/15 13:12:38;;;;;;;1.20;1.10;;;;;;;23.71;40.14;99105.91;222352;1268;22552;-73
2022/06/15 13:18:14;;;;;;;2.80;1.40;;;;;;;23.62;40.09;99104.21;222150;1268;22643;-73
2022/06/15 13:23:17;;;;;;;2.20;1.60;;;;;;;23.68;39.94;99101.17;221443;1268;22568;-72
2022/06/15 13:28:31;;;;;;;2.50;1.90;;;;;;;23.71;40.19;99101.37;221821;1268;25736;-72
2022/06/15 13:33:49;;;;;;;4.00;1.60;;;;;;;23.86;39.34;99097.61;221857;1270;24769;-72
2022/06/15 13:38:53;;;;;;;;;;;;;;;23.80;39.18;99094.86;222075;1268;22531;-72
2022/06/15 13:44:01;;;;;;;2.60;1.40;;;;;;;23.86;38.51;99094.55;221686;1268;22666;-72
2022/06/15 13:49:20;;;;;;;2.10;1.90;;;;;;;23.85;38.19;99090.94;221450;1270;22623;-72
2022/06/15 13:54:48;;;;;;;1.70;1.50;;;;;;;23.89;38.05;99087.36;222159;1268;22677;-72
2022/06/15 14:00:25;;;;;;;2.00;1.20;;;;;;;23.85;38.49;99078.29;222021;1268;25254;-72
2022/06/15 14:06:05;;;;;;;1.60;1.50;;;;;;;23.96;38.75;99074.39;221479;1268;24740;-72
2022/06/15 14:11:35;;;;;;;2.10;1.30;;;;;;;24.00;38.88;99069.27;220987;1270;22607;-72
2022/06/15 14:16:40;;;;;;;2.80;1.40;;;;;;;23.98;38.64;99063.86;221519;1268;22597;-72
2022/06/15 14:21:59;;;;;;;1.40;1.20;;;;;;;23.99;39.10;99062.15;221123;1270;22563;-72
2022/06/15 14:27:14;;;;;;;2.40;1.30;;;;;;;24.03;38.97;99057.91;221114;1270;22588;-71
2022/06/15 14:32:59;;;;;;;1.90;1.30;;;;;;;24.08;39.09;99054.69;221127;1270;22829;-72
2022/06/15 14:38:04;;;;;;;2.90;1.60;;;;;;;24.11;38.73;99052.91;221622;1268;24790;-71
2022/06/15 14:43:09;;;;;;;2.00;1.40;;;;;;;24.20;38.87;99056.47;221477;1268;22528;-72
2022/06/15 14:48:34;;;;;;;1.30;1.10;;;;;;;24.16;38.46;99055.16;221321;1268;24270;-71
2022/06/15 14:54:03;;;;;;;2.50;1.40;;;;;;;24.14;38.72;99043.97;221409;1268;22700;-72
2022/06/15 14:59:17;;;;;;;5.40;2.00;;;;;;;24.23;38.51;99042.82;221442;1268;22570;-72
2022/06/15 15:04:23;;;;;;;2.30;1.30;;;;;;;24.19;38.16;99041.20;221344;1268;22467;-72
2022/06/15 15:09:28;;;;;;;1.80;1.20;;;;;;;24.13;37.45;99033.39;221214;1270;24107;-72
2022/06/15 15:14:34;;;;;;;2.30;1.10;;;;;;;24.05;36.78;99036.13;221466;1269;24691;-72
2022/06/15 15:19:43;;;;;;;1.10;1.00;;;;;;;24.08;37.28;99029.13;221668;1268;25549;-71
2022/06/15 15:24:54;;;;;;;1.70;0.90;;;;;;;24.13;37.50;99025.34;221339;1270;24142;-72
2022/06/15 15:35:37;;;;;;;1.30;1.10;;;;;;;24.19;37.28;99013.61;221741;1268;24208;-71
2022/06/15 15:41:03;;;;;;;1.90;1.10;;;;;;;24.25;37.26;99009.60;221558;1268;24257;-72
2022/06/15 15:46:07;;;;;;;2.10;1.10;;;;;;;24.20;36.81;99005.87;221399;1268;22710;-72
2022/06/15 15:51:10;;;;;;;3.20;2.50;;;;;;;24.24;37.04;99004.11;221557;1268;22554;-72
2022/06/15 15:56:14;;;;;;;2.10;1.20;;;;;;;24.30;36.78;98998.62;221607;1269;22607;-72
2022/06/15 16:01:26;;;;;;;1.50;1.40;;;;;;;24.38;36.75;99000.66;221660;1268;22596;-72
2022/06/15 16:06:32;;;;;;;3.40;1.50;;;;;;;24.40;36.58;98999.98;221322;1269;22636;-72
2022/06/15 16:11:39;;;;;;;1.90;1.10;;;;;;;24.48;36.71;99001.23;221705;1268;25396;-72
2022/06/15 16:16:42;;;;;;;2.60;1.60;;;;;;;24.54;37.02;99006.05;221698;1268;24205;-72
2022/06/15 16:21:47;;;;;;;3.10;2.40;;;;;;;24.57;36.95;98999.59;221460;1268;22560;-71
2022/06/15 16:26:52;;;;;;;2.40;1.40;;;;;;;24.50;36.97;98996.86;221505;1268;22541;-72
2022/06/15 16:31:54;;;;;;;1.60;1.00;;;;;;;24.36;37.02;98991.88;221321;1270;24257;-71
2022/06/15 16:37:04;;;;;;;1.80;1.30;;;;;;;24.12;37.70;98984.29;221496;1270;22778;-72
2022/06/15 16:42:07;;;;;;;2.00;1.40;;;;;;;23.99;37.75;98983.13;220998;1270;22599;-71
2022/06/15 16:47:10;;;;;;;1.90;1.50;;;;;;;23.94;37.93;98982.13;221603;1268;22851;-74
2022/06/15 16:52:21;;;;;;;1.40;1.30;;;;;;;23.87;38.19;98980.95;221355;1270;22539;-71
2022/06/15 16:57:24;;;;;;;4.30;1.40;;;;;;;23.88;38.62;98977.44;221510;1268;24523;-72
2022/06/15 17:02:26;;;;;;;2.00;1.90;;;;;;;23.94;38.74;98974.70;221573;1268;22549;-72
2022/06/15 17:07:38;;;;;;;2.20;1.40;;;;;;;24.14;38.94;98975.23;221811;1268;22608;-71
2022/06/15 17:12:44;;;;;;;1.90;1.70;;;;;;;25.46;38.68;98975.95;221707;1268;22548;-71
2022/06/15 17:18:03;;;;;;;1.40;1.30;;;;;;;27.31;37.72;98965.30;221682;1268;24228;-72
2022/06/15 17:23:28;;;;;;;1.60;1.40;;;;;;;29.40;35.99;98963.83;221286;1270;22643;-72
2022/06/15 17:28:31;;;;;;;2.70;1.40;;;;;;;30.67;34.27;98966.09;221663;1268;23503;-72
2022/06/15 17:33:52;;;;;;;3.40;1.60;;;;;;;31.20;33.21;98966.47;221577;1268;22983;-72
2022/06/15 17:39:08;;;;;;;3.10;1.80;;;;;;;30.07;32.17;98966.70;221570;1268;22624;-71
2022/06/15 17:44:11;;;;;;;4.00;2.40;;;;;;;28.42;32.85;98965.29;221498;1268;23549;-71
2022/06/15 17:49:17;;;;;;;2.40;1.50;;;;;;;26.79;33.98;98958.70;221690;1270;24343;-71
2022/06/15 17:54:19;;;;;;;2.60;1.70;;;;;;;25.41;35.55;98961.31;221640;1270;22596;-71
2022/06/15 17:59:23;;;;;;;2.40;1.70;;;;;;;24.40;37.10;98961.33;221396;1268;22718;-72
2022/06/15 18:04:28;;;;;;;2.80;1.80;;;;;;;23.61;38.36;98956.86;221755;1268;25364;-73
2022/06/15 18:09:35;;;;;;;2.80;2.10;;;;;;;23.01;39.29;98957.58;221434;1269;22658;-72
2022/06/15 18:14:41;;;;;;;4.80;4.20;;;;;;;22.46;40.19;98951.23;221184;1271;25574;-71
2022/06/15 18:19:52;;;;;;;3.50;2.20;;;;;;;22.03;40.87;98952.63;220677;1270;22545;-70
2022/06/15 18:25:21;;;;;;;1.60;1.10;;;;;;;21.66;41.53;98944.96;221671;1268;22600;-71
2022/06/15 18:31:00;;;;;;;1.90;1.40;;;;;;;21.28;42.35;98944.06;220745;1268;22539;-72
2022/06/15 18:36:11;;;;;;;2.60;1.40;;;;;;;20.96;43.09;98948.03;221555;1268;22554;-71
2022/06/15 18:41:30;;;;;;;3.60;1.50;;;;;;;20.67;43.38;98948.41;221681;1268;22726;-72
2022/06/15 18:52:05;;;;;;;2.10;1.20;;;;;;;20.11;44.33;98945.33;221581;1268;22560;-72
2022/06/15 18:57:18;;;;;;;3.10;1.50;;;;;;;19.88;44.45;98946.35;221622;1268;25749;-70
2022/06/15 19:02:43;;;;;;;10.40;7.60;;;;;;;19.61;44.53;98949.86;221580;1268;22551;-72
2022/06/15 19:08:14;;;;;;;5.60;3.20;;;;;;;19.36;45.07;98949.98;221688;1268;22619;-71
2022/06/15 19:13:18;;;;;;;6.00;3.50;;;;;;;19.13;45.48;98957.60;221847;1267;22694;-72
2022/06/15 19:18:24;;;;;;;7.80;5.40;;;;;;;18.92;45.88;98957.65;221606;1268;22559;-72
2022/06/15 19:23:26;;;;;;;14.50;8.70;;;;;;;18.73;46.34;98957.63;221634;1268;24231;-70
2022/06/15 19:28:31;;;;;;;30.80;19.70;;;;;;;18.55;46.99;98960.09;221386;1270;24235;-71
2022/06/15 19:33:34;;;;;;;27.70;18.80;;;;;;;18.40;47.52;98962.50;221619;1268;22690;-72
2022/06/15 19:38:37;;;;;;;24.70;17.00;;;;;;;18.23;47.98;98964.73;221447;1270;22605;-71
2022/06/15 19:43:42;;;;;;;30.40;19.10;;;;;;;18.08;48.61;98964.61;221629;1268;22591;-72
2022/06/15 19:48:52;;;;;;;18.70;12.00;;;;;;;17.91;49.41;98962.92;221802;1270;25367;-71
2022/06/15 19:54:05;;;;;;;12.60;7.60;;;;;;;17.68;49.98;98969.51;221623;1267;22720;-71
2022/06/15 19:59:13;;;;;;;10.70;6.70;;;;;;;17.46;50.56;98973.02;221568;1268;22532;-73
2022/06/15 20:04:17;;;;;;;11.00;7.00;;;;;;;17.23;51.24;98971.31;221594;1270;25400;-72
2022/06/15 20:09:20;;;;;;;10.30;6.80;;;;;;;17.04;51.81;98971.20;221613;1270;22571;-71
2022/06/15 20:14:23;;;;;;;7.90;5.20;;;;;;;16.89;52.21;98968.48;221603;1268;22702;-71
2022/06/15 20:19:41;;;;;;;7.10;5.50;;;;;;;16.74;52.70;98967.13;221621;1268;22658;-70
2022/06/15 20:24:44;;;;;;;8.40;6.00;;;;;;;16.64;53.31;98969.45;221248;1270;23404;-71
2022/06/15 20:29:51;;;;;;;9.40;5.30;;;;;;;16.58;53.85;98973.73;221488;1270;22832;-72
2022/06/15 20:34:55;;;;;;;7.50;4.90;;;;;;;16.52;53.89;98974.78;221242;1270;22564;-71
2022/06/15 20:39:58;;;;;;;7.20;5.30;;;;;;;16.41;54.34;98973.02;221621;1268;23061;-70
2022/06/15 20:45:22;;;;;;;8.70;5.70;;;;;;;16.29;54.82;98971.65;221527;1267;28031;-72
2022/06/15 20:50:24;;;;;;;8.10;5.90;;;;;;;16.16;55.42;98972.05;221777;1269;22525;-72
2022/06/15 20:56:42;;;;;;;8.40;6.00;;;;;;;16.02;55.82;98976.77;221394;1268;22691;-71
2022/06/15 21:00:51;;;;;;;10.80;6.70;;;;;;;15.89;56.40;98969.20;221581;1267;22527;-71
2022/06/15 21:06:00;;;;;;;10.80;7.20;;;;;;;15.76;56.85;98970.55;221644;1269;25364;-71
2022/06/15 21:21:51;;;;;;;9.50;6.70;;;;;;;15.52;58.32;98965.34;221730;1268;24199;-71
2022/06/15 21:26:56;;;;;;;9.00;5.50;;;;;;;15.43;58.40;98965.34;221860;1269;25465;-70
2022/06/15 21:32:04;;;;;;;6.90;5.00;;;;;;;15.31;58.79;98964.27;220796;1268;24263;-70
2022/06/15 21:37:16;;;;;;;6.30;4.40;;;;;;;15.20;59.10;98962.44;221756;1270;25461;-71
2022/06/15 21:42:32;;;;;;;7.70;5.30;;;;;;;15.10;59.34;98963.11;221521;1270;22553;-72
2022/06/15 21:47:43;;;;;;;6.60;4.90;;;;;;;15.02;59.62;98961.98;221642;1268;22660;-71
2022/06/15 21:52:56;;;;;;;6.80;4.50;;;;;;;14.93;59.76;98959.20;221662;1268;24232;-71
2022/06/15 21:58:02;;;;;;;6.50;4.30;;;;;;;14.79;60.12;98959.36;221475;1268;23017;-71
2022/06/15 22:03:18;;;;;;;8.30;4.70;;;;;;;14.65;60.54;98960.55;221719;1268;24222;-71
2022/06/15 22:08:27;;;;;;;5.70;4.20;;;;;;;14.51;60.84;98956.14;221736;1270;22623;-71
2022/06/15 22:13:48;;;;;;;8.00;4.70;;;;;;;14.39;61.74;98953.45;221594;1268;25330;-71
2022/06/15 22:18:53;;;;;;;5.60;4.60;;;;;;;14.29;62.18;98944.77;220884;1270;22532;-72
2022/06/15 22:24:07;;;;;;;8.90;5.50;;;;;;;14.16;62.84;98941.40;221626;1269;25370;-71
2022/06/15 22:29:19;;;;;;;11.40;6.10;;;;;;;14.06;63.05;98943.11;221523;1268;22655;-71
2022/06/15 22:34:22;;;;;;;12.30;5.40;;;;;;;13.94;63.33;98942.36;221830;1268;22532;-72
2022/06/15 22:39:27;;;;;;;10.70;5.40;;;;;;;13.85;63.85;98938.71;221564;1269;23901;-72
2022/06/15 22:44:33;;;;;;;7.10;5.30;;;;;;;13.81;64.48;98936.60;221678;1270;22538;-73
2022/06/15 22:55:01;;;;;;;8.30;5.00;;;;;;;13.74;64.91;98933.60;221673;1269;22557;-71
2022/06/15 23:00:15;;;;;;;6.40;5.20;;;;;;;13.68;65.19;98933.34;221771;1269;23923;-70
2022/06/15 23:05:23;;;;;;;9.00;5.00;;;;;;;13.63;65.50;98935.02;221726;1270;24253;-71
2022/06/15 23:10:34;;;;;;;7.50;5.10;;;;;;;13.57;65.68;98933.50;221943;1270;23368;-71
2022/06/15 23:15:37;;;;;;;8.00;5.50;;;;;;;13.51;66.02;98926.83;221898;1270;22589;-70
2022/06/15 23:20:42;;;;;;;8.40;5.20;;;;;;;13.46;66.07;98927.59;221876;1269;22528;-71
2022/06/15 23:25:45;;;;;;;7.60;5.20;;;;;;;13.46;66.48;98927.27;221637;1270;26167;-72
2022/06/15 23:30:48;;;;;;;7.20;5.00;;;;;;;13.46;66.65;98930.29;221636;1270;22560;-72
2022/06/15 23:35:57;;;;;;;8.10;5.30;;;;;;;13.45;66.81;98929.56;221598;1270;25310;-71
2022/06/15 23:41:00;;;;;;;9.50;5.70;;;;;;;13.40;66.89;98924.55;221608;1268;22514;-71
2022/06/15 23:51:42;;;;;;;8.10;5.60;;;;;;;13.25;67.03;98918.23;221238;1269;25300;-72
2022/06/15 23:56:45;;;;;;;7.90;5.60;;;;;;;13.16;67.29;98912.88;221557;1270;26171;-72
